Time;durP1;ratioP1;P1;durP2;ratioP2;P2;SDS_P1;SDS_P2;PMS_P1;PMS_P2;Temp;Humidity;BMP_temperature;BMP_pressure;BME280_temperature;BME280_humidity;BME280_pressure;Samples;Min_cycle;Max_cycle;Signal;HPM_P1;HPM_P2
2023/08/08 00:01:42;;;;;;;47.25;44.58;;;;;;;;;;4953593;29;20046;-95
2023/08/08 00:04:10;;;;;;;49.83;47.10;;;;;;;;;;4940990;29;20027;-96
2023/08/08 00:13:01;;;;;;;27.30;25.63;;;;;;;;;;4957446;29;20038;-96
2023/08/08 00:15:33;;;;;;;35.08;32.90;;;;;;;;;;4939976;29;20267;-96
2023/08/08 00:18:26;;;;;;;33.27;31.40;;;;;;;;;;4939684;29;20031;-96
2023/08/08 00:21:09;;;;;;;40.35;38.10;;;;;;;;;;4940065;29;20024;-96
2023/08/08 00:23:35;;;;;;;39.72;37.42;;;;;;;;;;4938963;29;20042;-94
2023/08/08 00:29:08;;;;;;;;;;;;;;;;;;;;;
2023/08/08 00:31:44;;;;;;;41.78;39.50;;;;;;;;;;4957710;29;20027;-96
2023/08/08 00:34:13;;;;;;;35.83;33.70;;;;;;;;;;4939683;29;20031;-94
2023/08/08 00:36:42;;;;;;;42.10;39.70;;;;;;;;;;4939862;29;20404;-95
2023/08/08 00:42:52;;;;;;;25.60;23.90;;;;;;;;;;4936021;29;20039;-96
2023/08/08 00:45:18;;;;;;;32.70;30.90;;;;;;;;;;4924941;29;20571;-94
2023/08/08 00:48:32;;;;;;;;;;;;;;;;;;;;;
2023/08/08 00:51:08;;;;;;;;;;;;;;;;;;4939168;29;20481;-96
2023/08/08 00:54:24;;;;;;;;;;;;;;;;;;;;;
2023/08/08 01:00:41;;;;;;;30.88;28.98;;;;;;;;;;4889938;29;20128;-96
2023/08/08 01:03:10;;;;;;;41.38;39.03;;;;;;;;;;4846506;29;20046;-95
2023/08/08 01:09:14;;;;;;;35.40;33.50;;;;;;;;;;4924260;29;20043;-94
2023/08/08 01:12:11;;;;;;;34.65;32.65;;;;;;;;;;4900918;29;20039;-96
2023/08/08 01:14:37;;;;;;;28.52;26.80;;;;;;;;;;4922072;28;20051;-94
2023/08/08 01:17:20;;;;;;;34.58;32.55;;;;;;;;;;4954743;28;20011;-95
2023/08/08 01:20:02;;;;;;;40.28;37.97;;;;;;;;;;5299000;23;20051;-94
2023/08/08 01:25:30;;;;;;;30.65;28.90;;;;;;;;;;4937571;29;20042;-95
2023/08/08 01:27:56;;;;;;;35.63;33.53;;;;;;;;;;4936237;29;20032;-94
2023/08/08 01:30:38;;;;;;;34.63;32.53;;;;;;;;;;4936240;29;20027;-95
2023/08/08 01:33:04;;;;;;;34.13;32.17;;;;;;;;;;4935949;29;20039;-94
2023/08/08 01:38:54;;;;;;;;;;;;;;;;;;4898290;29;20153;-96
2023/08/08 01:41:33;;;;;;;25.50;23.88;;;;;;;;;;4912700;29;19907;-94
2023/08/08 01:44:28;;;;;;;34.00;32.08;;;;;;;;;;4936127;29;20036;-95
2023/08/08 01:53:03;;;;;;;31.02;29.05;;;;;;;;;;4841766;29;20108;-96
2023/08/08 02:05:42;;;;;;;26.02;24.52;;;;;;;;;;4792828;30;20065;-96
2023/08/08 02:08:18;;;;;;;26.55;24.95;;;;;;;;;;4747357;30;20047;-96
2023/08/08 02:11:16;;;;;;;29.30;27.55;;;;;;;;;;4791869;29;20038;-96
2023/08/08 02:16:42;;;;;;;29.20;27.38;;;;;;;;;;4851476;29;20038;-95
2023/08/08 02:19:30;;;;;;;;;;;;;;;;;;;;;
2023/08/08 02:22:21;;;;;;;;;;;;;;;;;;;;;
2023/08/08 02:27:59;;;;;;;29.80;27.98;;;;;;;;;;4900404;29;20039;-96
2023/08/08 02:30:34;;;;;;;32.15;29.92;;;;;;;;;;4903522;29;20127;-96
2023/08/08 02:33:16;;;;;;;32.08;30.15;;;;;;;;;;4903590;29;20039;-96
2023/08/08 02:35:58;;;;;;;34.58;32.47;;;;;;;;;;4909492;29;20036;-94
2023/08/08 02:38:28;;;;;;;27.40;25.55;;;;;;;;;;4919793;29;20469;-96
2023/08/08 02:47:24;;;;;;;28.67;26.92;;;;;;;;;;4920040;29;20050;-96
2023/08/08 02:49:57;;;;;;;31.27;29.35;;;;;;;;;;4918965;29;20480;-95
2023/08/08 02:55:37;;;;;;;23.23;21.70;;;;;;;;;;4930790;29;20040;-96
2023/08/08 02:58:29;;;;;;;33.22;31.15;;;;;;;;;;4904372;29;20055;-94
2023/08/08 03:01:04;;;;;;;31.88;29.70;;;;;;;;;;4902892;29;20040;-95
2023/08/08 03:06:53;;;;;;;;;;;;;;;;;;;;;
2023/08/08 03:09:19;;;;;;;33.58;31.33;;;;;;;;;;4918756;29;20043;-96
2023/08/08 03:11:48;;;;;;;30.13;28.13;;;;;;;;;;4918632;29;20031;-96
2023/08/08 03:14:29;;;;;;;37.58;35.17;;;;;;;;;;4918381;29;20044;-96
2023/08/08 03:17:18;;;;;;;30.45;28.60;;;;;;;;;;4919193;29;20060;-95
2023/08/08 03:19:45;;;;;;;27.42;25.80;;;;;;;;;;4917894;29;20044;-96
2023/08/08 03:22:42;;;;;;;;;;;;;;;;;;;;;
2023/08/08 03:25:16;;;;;;;27.05;25.13;;;;;;;;;;4917946;29;20036;-96
2023/08/08 03:27:42;;;;;;;;;;;;;;;;;;4918548;29;20032;-96
2023/08/08 03:30:08;;;;;;;21.85;20.52;;;;;;;;;;4918215;29;19911;-96
2023/08/08 03:32:34;;;;;;;22.85;21.38;;;;;;;;;;4918194;29;20028;-96
2023/08/08 03:35:27;;;;;;;;;;;;;;;;;;;;;
2023/08/08 03:37:56;;;;;;;27.25;24.80;;;;;;;;;;4919884;29;20032;-96
2023/08/08 03:40:29;;;;;;;25.13;23.63;;;;;;;;;;4934587;29;20036;-96
2023/08/08 03:43:24;;;;;;;22.92;21.27;;;;;;;;;;4939985;29;20036;-96
2023/08/08 03:46:16;;;;;;;23.73;22.10;;;;;;;;;;4914658;29;20482;-95
2023/08/08 03:48:51;;;;;;;23.02;21.60;;;;;;;;;;4918787;29;20124;-95
2023/08/08 03:51:41;;;;;;;21.73;20.33;;;;;;;;;;4920701;29;20032;-94
2023/08/08 03:54:10;;;;;;;29.33;27.45;;;;;;;;;;4928086;29;20031;-96
2023/08/08 03:56:52;;;;;;;29.50;27.65;;;;;;;;;;4938015;29;20031;-96
2023/08/08 03:59:24;;;;;;;27.70;25.85;;;;;;;;;;4937592;29;20520;-95
2023/08/08 04:02:08;;;;;;;33.53;31.27;;;;;;;;;;4937620;29;20031;-95
2023/08/08 04:04:40;;;;;;;26.00;24.45;;;;;;;;;;4937832;29;20030;-95
2023/08/08 04:10:17;;;;;;;;;;;;;;;;;;;;;
2023/08/08 04:12:51;;;;;;;25.73;24.17;;;;;;;;;;4940019;29;20122;-95
2023/08/08 04:15:17;;;;;;;;;;;;;;;;;;4938346;29;20124;-96
2023/08/08 04:18:12;;;;;;;22.48;20.90;;;;;;;;;;4937660;29;19910;-96
2023/08/08 04:20:48;;;;;;;24.73;23.02;;;;;;;;;;4950877;29;20142;-96
2023/08/08 04:25:52;;;;;;;31.35;29.48;;;;;;;;;;4997016;23;20070;-95
2023/08/08 04:28:42;;;;;;;33.08;31.08;;;;;;;;;;4979738;28;20023;-96
2023/08/08 04:31:13;;;;;;;35.75;33.67;;;;;;;;;;4961739;28;20469;-96
2023/08/08 04:34:01;;;;;;;;;;;;;;;;;;;;;
2023/08/08 04:36:50;;;;;;;39.40;37.10;;;;;;;;;;4955269;29;20130;-96
2023/08/08 04:39:19;;;;;;;36.20;34.05;;;;;;;;;;4941505;29;20047;-96
2023/08/08 04:41:47;;;;;;;49.92;46.75;;;;;;;;;;4957501;29;20472;-96
2023/08/08 04:44:19;;;;;;;50.60;47.83;;;;;;;;;;4957629;29;20031;-96
2023/08/08 04:47:06;;;;;;;46.17;43.53;;;;;;;;;;4958898;29;20053;-96
2023/08/08 04:53:54;;;;;;;76.18;71.97;;;;;;;;;;4826827;29;20045;-96
2023/08/08 04:56:04;;;;;;;98.55;93.20;;;;;;;;;;4818348;29;20037;-96
2023/08/08 05:01:57;;;;;;;105.00;99.32;;;;;;;;;;4818580;29;20038;-92
2023/08/08 05:04:34;;;;;;;151.95;143.95;;;;;;;;;;4900490;23;20048;-96
2023/08/08 05:07:12;;;;;;;186.88;177.23;;;;;;;;;;4921455;29;20046;-96
2023/08/08 05:11:02;;;;;;;201.73;190.88;;;;;;;;;;4921994;29;20035;-96
2023/08/08 05:13:17;;;;;;;182.73;173.05;;;;;;;;;;4838861;29;20069;-96
2023/08/08 05:15:46;;;;;;;210.82;199.82;;;;;;;;;;4844037;29;20033;-95
2023/08/08 05:18:15;;;;;;;217.57;205.90;;;;;;;;;;4849634;29;20034;-96
2023/08/08 05:20:53;;;;;;;215.30;203.75;;;;;;;;;;4847525;29;20033;-96
2023/08/08 05:24:02;;;;;;;205.95;194.95;;;;;;;;;;4848752;29;20038;-94
2023/08/08 05:26:39;;;;;;;191.05;180.65;;;;;;;;;;4857973;29;20029;-96
2023/08/08 05:35:31;;;;;;;179.93;170.23;;;;;;;;;;4793185;29;20042;-95
2023/08/08 05:38:09;;;;;;;244.65;231.70;;;;;;;;;;4792599;29;20081;-96
2023/08/08 05:40:36;;;;;;;194.93;184.35;;;;;;;;;;4774884;30;20111;-94
2023/08/08 05:46:40;;;;;;;214.20;202.55;;;;;;;;;;4741533;30;20075;-96
2023/08/08 05:49:06;;;;;;;194.57;184.18;;;;;;;;;;4749372;30;20036;-96
2023/08/08 05:51:32;;;;;;;206.88;195.40;;;;;;;;;;4772642;30;20056;-96
2023/08/08 05:53:59;;;;;;;192.13;181.52;;;;;;;;;;4814237;29;20046;-93
2023/08/08 05:59:49;;;;;;;194.75;184.13;;;;;;;;;;4816141;29;20041;-94
2023/08/08 06:02:29;;;;;;;178.55;168.93;;;;;;;;;;4810424;29;20072;-96
2023/08/08 06:07:51;;;;;;;178.10;168.52;;;;;;;;;;4826920;29;20046;-96
2023/08/08 06:10:19;;;;;;;153.75;145.25;;;;;;;;;;4826942;29;20054;-96
2023/08/08 06:12:46;;;;;;;184.68;174.32;;;;;;;;;;4824100;29;20043;-94
2023/08/08 06:15:31;;;;;;;163.68;154.70;;;;;;;;;;4811037;29;20050;-96
2023/08/08 06:18:06;;;;;;;163.07;154.20;;;;;;;;;;4833440;29;20146;-96
2023/08/08 06:20:35;;;;;;;148.38;140.35;;;;;;;;;;4872217;29;20052;-95
2023/08/08 06:23:07;;;;;;;94.70;89.32;;;;;;;;;;4883325;29;20041;-96
2023/08/08 06:29:28;;;;;;;;;;;;;;;;;;;;;
2023/08/08 06:35:11;;;;;;;127.05;119.18;;;;;;;;;;4905659;29;20035;-96
2023/08/08 06:37:51;;;;;;;80.10;75.45;;;;;;;;;;4923494;29;20032;-96
2023/08/08 06:40:21;;;;;;;64.55;60.75;;;;;;;;;;4922293;29;20038;-96
2023/08/08 06:42:47;;;;;;;44.55;41.83;;;;;;;;;;4936303;29;20172;-96
2023/08/08 06:51:05;;;;;;;53.60;50.45;;;;;;;;;;4919767;29;20042;-94
2023/08/08 06:53:32;;;;;;;73.72;69.18;;;;;;;;;;4919644;29;20067;-96
2023/08/08 06:56:07;;;;;;;46.28;43.60;;;;;;;;;;4903251;29;20123;-96
2023/08/08 06:59:06;;;;;;;61.22;57.85;;;;;;;;;;4903916;29;20477;-96
2023/08/08 07:01:35;;;;;;;;;;;;;;;;;;;;;
2023/08/08 07:04:14;;;;;;;44.65;42.00;;;;;;;;;;4896769;29;20054;-96
2023/08/08 07:06:41;;;;;;;63.78;59.92;;;;;;;;;;4900896;29;20489;-94
2023/08/08 07:09:10;;;;;;;54.38;51.25;;;;;;;;;;4932736;29;20070;-94
2023/08/08 07:11:37;;;;;;;44.15;41.55;;;;;;;;;;4940890;29;20393;-93
2023/08/08 07:14:03;;;;;;;42.33;39.75;;;;;;;;;;4943095;29;20031;-94
2023/08/08 07:16:29;;;;;;;53.17;50.05;;;;;;;;;;4941834;29;20031;-95
2023/08/08 07:18:55;;;;;;;54.65;51.13;;;;;;;;;;4922265;29;20027;-93
2023/08/08 07:21:25;;;;;;;42.13;39.72;;;;;;;;;;4924954;28;20039;-93
2023/08/08 07:23:51;;;;;;;62.92;59.13;;;;;;;;;;4956879;28;20023;-93
2023/08/08 07:29:05;;;;;;;57.38;54.00;;;;;;;;;;5012714;23;20128;-92
2023/08/08 07:31:32;;;;;;;89.97;84.65;;;;;;;;;;4988318;23;20044;-90
2023/08/08 07:33:58;;;;;;;45.67;42.97;;;;;;;;;;4925619;29;20532;-88
2023/08/08 07:36:37;;;;;;;63.35;59.70;;;;;;;;;;4928055;29;20062;-95
2023/08/08 07:39:28;;;;;;;86.05;80.93;;;;;;;;;;4928869;29;20035;-96
2023/08/08 07:51:06;;;;;;;12.55;11.73;;;;;;;;;;4865899;29;20048;-96
2023/08/08 07:59:43;;;;;;;39.47;37.10;;;;;;;;;;4854961;29;20086;-96
2023/08/08 08:08:31;;;;;;;95.72;90.07;;;;;;;;;;4828719;29;20042;-96
2023/08/08 08:11:05;;;;;;;72.97;68.57;;;;;;;;;;4806850;29;20409;-95
2023/08/08 08:13:32;;;;;;;87.30;82.13;;;;;;;;;;4806357;29;20473;-96
2023/08/08 08:15:58;;;;;;;87.22;81.60;;;;;;;;;;4806386;29;20136;-94
2023/08/08 08:18:28;;;;;;;52.97;49.88;;;;;;;;;;4809651;29;20129;-93
2023/08/08 08:20:57;;;;;;;71.43;67.28;;;;;;;;;;4816530;29;20102;-91
2023/08/08 08:23:23;;;;;;;83.25;78.15;;;;;;;;;;4874958;29;20040;-94
2023/08/08 08:25:56;;;;;;;27.60;25.95;;;;;;;;;;4914136;29;20044;-96
2023/08/08 08:28:29;;;;;;;59.50;55.97;;;;;;;;;;4903663;29;20131;-94
2023/08/08 08:30:55;;;;;;;49.90;46.60;;;;;;;;;;4902478;29;20059;-95
2023/08/08 08:33:21;;;;;;;52.28;49.15;;;;;;;;;;4902666;29;20052;-94
2023/08/08 08:36:06;;;;;;;56.55;53.25;;;;;;;;;;4906418;29;20024;-96
2023/08/08 08:38:35;;;;;;;56.28;53.10;;;;;;;;;;4927820;29;20118;-92
2023/08/08 08:41:03;;;;;;;83.75;78.88;;;;;;;;;;4931668;29;20042;-91
2023/08/08 08:43:32;;;;;;;94.55;88.90;;;;;;;;;;4925638;29;20059;-96
2023/08/08 08:46:01;;;;;;;83.32;78.03;;;;;;;;;;4921528;29;20039;-93
2023/08/08 08:48:35;;;;;;;90.82;85.25;;;;;;;;;;4921401;29;20390;-94
2023/08/08 08:51:07;;;;;;;126.00;117.40;;;;;;;;;;4921335;29;20063;-93
2023/08/08 08:53:39;;;;;;;60.13;56.17;;;;;;;;;;4937950;29;20028;-94
2023/08/08 08:56:05;;;;;;;41.17;38.80;;;;;;;;;;4920584;29;20165;-89
2023/08/08 08:58:31;;;;;;;46.80;44.13;;;;;;;;;;4920332;29;20028;-90
2023/08/08 09:00:58;;;;;;;60.08;56.25;;;;;;;;;;4920663;29;20031;-89
2023/08/08 09:03:25;;;;;;;57.38;54.00;;;;;;;;;;4936969;29;20055;-88
2023/08/08 09:05:55;;;;;;;50.08;47.10;;;;;;;;;;4920175;29;20043;-93
2023/08/08 09:08:21;;;;;;;39.15;36.95;;;;;;;;;;4920415;29;20044;-93
2023/08/08 09:10:47;;;;;;;75.82;70.95;;;;;;;;;;4920399;29;20401;-93
2023/08/08 09:13:20;;;;;;;40.60;38.20;;;;;;;;;;4920334;29;20027;-93
2023/08/08 09:15:50;;;;;;;55.22;51.75;;;;;;;;;;4901369;29;20039;-91
2023/08/08 09:18:17;;;;;;;48.88;45.90;;;;;;;;;;4916781;29;20028;-94
2023/08/08 09:20:55;;;;;;;57.83;54.20;;;;;;;;;;4919896;29;20031;-92
2023/08/08 09:23:21;;;;;;;50.10;46.95;;;;;;;;;;4920377;29;20024;-94
2023/08/08 09:25:47;;;;;;;51.70;48.70;;;;;;;;;;4920612;29;20043;-94
2023/08/08 09:28:13;;;;;;;42.20;39.75;;;;;;;;;;4920179;29;20051;-92
2023/08/08 09:30:43;;;;;;;40.92;38.55;;;;;;;;;;4918282;29;20023;-92
2023/08/08 09:33:15;;;;;;;51.88;48.78;;;;;;;;;;4901346;29;20088;-95
2023/08/08 09:35:41;;;;;;;50.72;47.63;;;;;;;;;;4901528;29;20047;-93
2023/08/08 09:38:22;;;;;;;65.68;61.75;;;;;;;;;;4902597;29;20039;-94
2023/08/08 09:40:48;;;;;;;97.75;92.13;;;;;;;;;;4900723;29;20079;-94
2023/08/08 09:43:17;;;;;;;138.23;129.98;;;;;;;;;;4918853;29;20038;-93
2023/08/08 09:45:47;;;;;;;140.88;132.77;;;;;;;;;;4920653;29;20371;-92
2023/08/08 09:48:13;;;;;;;140.35;132.20;;;;;;;;;;4920209;29;20130;-94
2023/08/08 09:50:41;;;;;;;128.32;120.72;;;;;;;;;;4920298;29;20038;-94
2023/08/08 09:53:07;;;;;;;130.85;122.90;;;;;;;;;;4920638;29;20114;-91
2023/08/08 09:55:36;;;;;;;186.10;174.75;;;;;;;;;;4920322;29;20024;-90
2023/08/08 09:58:03;;;;;;;169.23;159.10;;;;;;;;;;4920124;29;20421;-94
2023/08/08 10:00:35;;;;;;;175.95;165.45;;;;;;;;;;4920135;29;20032;-93
2023/08/08 10:03:08;;;;;;;248.95;232.82;;;;;;;;;;4920357;29;20055;-92
2023/08/08 10:05:38;;;;;;;162.07;152.48;;;;;;;;;;4921806;29;20028;-93
2023/08/08 10:08:05;;;;;;;204.90;190.02;;;;;;;;;;4920087;29;20043;-91
2023/08/08 10:10:31;;;;;;;273.88;254.43;;;;;;;;;;4936436;28;20023;-91
2023/08/08 10:13:00;;;;;;;181.65;170.80;;;;;;;;;;4943438;28;20035;-93
2023/08/08 10:15:33;;;;;;;118.57;111.50;;;;;;;;;;4942643;28;20031;-91
2023/08/08 10:17:59;;;;;;;151.15;141.98;;;;;;;;;;4943760;29;20035;-92
2023/08/08 10:20:28;;;;;;;115.22;108.53;;;;;;;;;;4933943;29;20070;-96
2023/08/08 10:22:55;;;;;;;145.10;136.25;;;;;;;;;;4923327;29;20532;-94
2023/08/08 10:25:28;;;;;;;121.30;113.90;;;;;;;;;;4923380;29;20028;-94
2023/08/08 10:31:52;;;;;;;137.07;128.73;;;;;;;;;;4887185;29;20045;-96
2023/08/08 10:34:24;;;;;;;141.25;132.57;;;;;;;;;;4866166;29;20033;-96
2023/08/08 10:37:04;;;;;;;114.10;107.50;;;;;;;;;;4910704;29;20036;-96
2023/08/08 10:39:56;;;;;;;187.77;175.55;;;;;;;;;;4924477;29;20563;-94
2023/08/08 10:45:14;;;;;;;157.10;147.68;;;;;;;;;;5069430;23;20467;-93
2023/08/08 10:47:45;;;;;;;228.07;213.73;;;;;;;;;;4941351;29;20481;-94
2023/08/08 10:50:15;;;;;;;194.18;181.60;;;;;;;;;;4942299;29;20031;-94
2023/08/08 10:53:09;;;;;;;164.90;155.15;;;;;;;;;;4942471;29;20492;-96
2023/08/08 10:55:38;;;;;;;163.75;153.70;;;;;;;;;;4941298;29;20439;-96
2023/08/08 11:01:08;;;;;;;205.13;192.43;;;;;;;;;;4901482;29;20028;-93
2023/08/08 11:03:39;;;;;;;180.40;168.13;;;;;;;;;;4899744;29;20055;-93
2023/08/08 11:06:09;;;;;;;174.18;163.35;;;;;;;;;;4901708;29;20036;-96
2023/08/08 11:08:41;;;;;;;146.93;138.45;;;;;;;;;;4899751;29;20041;-95
2023/08/08 11:11:28;;;;;;;208.32;195.70;;;;;;;;;;4898931;29;20491;-95
2023/08/08 11:14:15;;;;;;;181.48;169.82;;;;;;;;;;4961199;29;20039;-96
2023/08/08 11:16:46;;;;;;;118.30;111.32;;;;;;;;;;4925018;29;20050;-95
2023/08/08 11:19:22;;;;;;;316.73;293.75;;;;;;;;;;4941077;29;20023;-95
2023/08/08 11:21:51;;;;;;;172.32;162.20;;;;;;;;;;4940323;29;20035;-94
2023/08/08 11:24:21;;;;;;;138.40;130.38;;;;;;;;;;4940970;29;20031;-94
2023/08/08 11:26:47;;;;;;;209.50;195.43;;;;;;;;;;4942029;29;20058;-94
2023/08/08 11:29:16;;;;;;;175.82;165.32;;;;;;;;;;4940347;29;20046;-91
2023/08/08 11:31:42;;;;;;;232.43;215.68;;;;;;;;;;4940737;29;20023;-90
2023/08/08 11:34:10;;;;;;;178.20;167.10;;;;;;;;;;4940869;29;20078;-93
2023/08/08 11:36:42;;;;;;;198.45;186.63;;;;;;;;;;4940775;29;20024;-91
2023/08/08 11:39:14;;;;;;;141.57;133.48;;;;;;;;;;4941407;29;20030;-92
2023/08/08 11:41:41;;;;;;;223.60;207.85;;;;;;;;;;4940747;29;20182;-91
2023/08/08 11:44:08;;;;;;;193.00;181.45;;;;;;;;;;4937063;29;20389;-93
2023/08/08 11:46:34;;;;;;;167.68;158.07;;;;;;;;;;4936972;29;20023;-91
2023/08/08 11:49:07;;;;;;;166.85;156.23;;;;;;;;;;4937741;29;20123;-92
2023/08/08 11:51:34;;;;;;;180.68;170.05;;;;;;;;;;4937471;29;20035;-91
2023/08/08 11:54:07;;;;;;;177.15;166.85;;;;;;;;;;4937483;29;20039;-92
2023/08/08 11:56:33;;;;;;;;;;;;;;;;;;4937450;29;20031;-93
2023/08/08 11:59:00;;;;;;;221.52;207.93;;;;;;;;;;4936861;29;19907;-90
2023/08/08 12:01:26;;;;;;;163.30;154.07;;;;;;;;;;4938607;29;20040;-92
2023/08/08 12:03:56;;;;;;;271.52;252.63;;;;;;;;;;4937212;29;20091;-94
2023/08/08 12:06:29;;;;;;;187.70;176.90;;;;;;;;;;4937777;29;20038;-92
2023/08/08 12:08:55;;;;;;;;;;;;;;;;;;4938269;29;20090;-89
2023/08/08 12:11:28;;;;;;;217.43;205.02;;;;;;;;;;4937524;29;20307;-91
2023/08/08 12:13:54;;;;;;;;;;;;;;;;;;4945927;29;20039;-91
2023/08/08 12:16:20;;;;;;;251.60;237.57;;;;;;;;;;4972514;28;20272;-92
2023/08/08 12:18:46;;;;;;;253.65;239.20;;;;;;;;;;4937568;29;20031;-92
2023/08/08 12:21:15;;;;;;;269.95;254.45;;;;;;;;;;4937564;29;20024;-94
2023/08/08 12:23:44;;;;;;;277.15;261.10;;;;;;;;;;4937321;29;20075;-90
2023/08/08 12:26:13;;;;;;;299.10;281.35;;;;;;;;;;4937335;29;20091;-93
2023/08/08 12:28:46;;;;;;;215.52;203.48;;;;;;;;;;4940965;29;20046;-93
2023/08/08 12:31:31;;;;;;;332.03;312.10;;;;;;;;;;4943144;29;20079;-96
2023/08/08 12:34:03;;;;;;;287.83;270.45;;;;;;;;;;4942699;29;20279;-96
2023/08/08 12:37:00;;;;;;;269.45;253.70;;;;;;;;;;5034180;23;20114;-96
2023/08/08 12:39:29;;;;;;;237.05;223.40;;;;;;;;;;4945418;28;20119;-95
2023/08/08 12:44:58;;;;;;;292.50;274.60;;;;;;;;;;5599092;23;20441;-94
2023/08/08 12:55:32;;;;;;;225.10;212.38;;;;;;;;;;5450310;23;20035;-96
2023/08/08 12:58:27;;;;;;;266.02;250.45;;;;;;;;;;4921033;29;20048;-96
2023/08/08 13:01:02;;;;;;;267.52;252.13;;;;;;;;;;4843702;29;20038;-96
2023/08/08 13:03:34;;;;;;;244.50;231.00;;;;;;;;;;4921222;29;20126;-96
2023/08/08 13:33:25;;;;;;;;;;;;;;;;;;;;;
2023/08/08 13:39:05;;;;;;;246.88;232.82;;;;;;;;;;4957024;29;20121;-96
2023/08/08 13:45:26;;;;;;;;;;;;;;;;;;;;;
2023/08/08 13:48:23;;;;;;;259.52;244.23;;;;;;;;;;4955372;29;20035;-95
2023/08/08 13:51:19;;;;;;;225.13;212.55;;;;;;;;;;4956816;28;20035;-95
2023/08/08 13:53:55;;;;;;;;;;;;;;;;;;;;;
2023/08/08 13:56:48;;;;;;;262.60;247.27;;;;;;;;;;4961363;29;20121;-96
2023/08/08 14:05:20;;;;;;;241.50;227.35;;;;;;;;;;4882312;29;20413;-95
2023/08/08 14:08:27;;;;;;;204.32;193.13;;;;;;;;;;4882094;29;20241;-95
2023/08/08 14:11:03;;;;;;;;;;;;;;;;;;;;;
2023/08/08 14:28:01;;;;;;;260.08;245.32;;;;;;;;;;4974874;23;20636;-96
2023/08/08 14:30:41;;;;;;;217.82;205.25;;;;;;;;;;4969528;29;20035;-96
2023/08/08 14:33:10;;;;;;;256.70;241.52;;;;;;;;;;4959524;29;20118;-93
2023/08/08 14:35:42;;;;;;;205.82;193.90;;;;;;;;;;4957625;29;20111;-93
2023/08/08 14:38:19;;;;;;;367.02;343.35;;;;;;;;;;4949025;29;20027;-92
2023/08/08 15:13:54;;;;;;;268.00;251.27;;;;;;;;;;5667773;23;20034;-94
2023/08/08 15:16:32;;;;;;;257.00;241.77;;;;;;;;;;4941679;29;20020;-95
2023/08/08 15:40:41;;;;;;;269.88;254.15;;;;;;;;;;4958298;29;20123;-96
2023/08/08 15:43:19;;;;;;;253.15;238.32;;;;;;;;;;4940894;29;20019;-92
2023/08/08 15:45:51;;;;;;;235.70;222.38;;;;;;;;;;4940070;29;20051;-92
2023/08/08 15:48:23;;;;;;;245.82;232.20;;;;;;;;;;4921377;29;20512;-95
2023/08/08 15:51:10;;;;;;;320.85;300.75;;;;;;;;;;4937316;29;20035;-94
2023/08/08 15:53:42;;;;;;;211.68;199.90;;;;;;;;;;4941209;29;20035;-95
2023/08/08 15:56:11;;;;;;;265.08;250.07;;;;;;;;;;4940769;29;20461;-92
2023/08/08 15:59:06;;;;;;;272.20;256.83;;;;;;;;;;4940808;29;20477;-94
2023/08/08 16:01:36;;;;;;;275.00;259.13;;;;;;;;;;4940232;29;20031;-93
2023/08/08 16:04:02;;;;;;;301.83;284.15;;;;;;;;;;4940978;29;20077;-95
2023/08/08 16:06:31;;;;;;;293.52;276.67;;;;;;;;;;4946394;29;20035;-96
2023/08/08 16:09:10;;;;;;;266.65;251.52;;;;;;;;;;4962896;28;20087;-94
2023/08/08 16:11:42;;;;;;;264.52;249.95;;;;;;;;;;5151682;23;20083;-93
2023/08/08 16:14:33;;;;;;;348.15;327.38;;;;;;;;;;4982304;23;20032;-95
2023/08/08 16:17:03;;;;;;;311.15;292.38;;;;;;;;;;4923912;29;20127;-96
2023/08/08 16:19:29;;;;;;;586.53;545.85;;;;;;;;;;4922546;29;20028;-94
2023/08/08 16:21:58;;;;;;;313.25;294.50;;;;;;;;;;4922036;29;20038;-95
2023/08/08 16:24:25;;;;;;;293.65;277.17;;;;;;;;;;4913646;29;20035;-94
2023/08/08 16:26:52;;;;;;;321.85;302.33;;;;;;;;;;4910227;29;20035;-94
2023/08/08 16:29:18;;;;;;;304.60;286.80;;;;;;;;;;4901934;29;20036;-94
2023/08/08 16:31:47;;;;;;;249.50;236.15;;;;;;;;;;4911447;29;20032;-96
2023/08/08 16:34:13;;;;;;;278.70;262.80;;;;;;;;;;4905633;29;20482;-95
2023/08/08 16:36:42;;;;;;;295.85;278.58;;;;;;;;;;4918455;29;20036;-93
2023/08/08 16:39:12;;;;;;;254.10;239.70;;;;;;;;;;4910154;29;20055;-96
2023/08/08 16:41:38;;;;;;;265.98;250.55;;;;;;;;;;4909792;29;20038;-95
2023/08/08 16:44:11;;;;;;;280.40;264.23;;;;;;;;;;4912282;29;20114;-94
2023/08/08 16:47:06;;;;;;;325.63;306.25;;;;;;;;;;4914860;29;20047;-93
2023/08/08 16:49:51;;;;;;;263.02;247.43;;;;;;;;;;4904366;29;20040;-93
2023/08/08 16:52:17;;;;;;;243.95;230.05;;;;;;;;;;4917229;29;20035;-95
2023/08/08 16:54:55;;;;;;;258.58;243.25;;;;;;;;;;4912650;29;20024;-94
2023/08/08 16:57:25;;;;;;;285.40;268.98;;;;;;;;;;4916717;29;20031;-96
2023/08/08 17:03:13;;;;;;;290.73;273.63;;;;;;;;;;4872242;29;20611;-95
2023/08/08 17:05:39;;;;;;;262.40;247.43;;;;;;;;;;4897870;29;20494;-95
2023/08/08 17:11:17;;;;;;;;;;;;;;;;;;4948571;28;20038;-96
2023/08/08 17:17:06;;;;;;;;;;;;;;;;;;;;;
2023/08/08 17:19:35;;;;;;;253.82;240.52;;;;;;;;;;4899760;29;19908;-94
2023/08/08 17:22:11;;;;;;;253.45;239.32;;;;;;;;;;4899144;29;20489;-95
2023/08/08 17:24:37;;;;;;;283.52;267.13;;;;;;;;;;4898929;29;20068;-95
2023/08/08 17:27:30;;;;;;;254.45;240.57;;;;;;;;;;4899733;29;20055;-95
2023/08/08 17:30:15;;;;;;;251.93;238.25;;;;;;;;;;4902600;29;20060;-94
2023/08/08 17:33:08;;;;;;;261.02;246.23;;;;;;;;;;4902429;29;20029;-94
2023/08/08 17:35:36;;;;;;;255.90;242.05;;;;;;;;;;4903111;29;20028;-92
2023/08/08 17:38:03;;;;;;;271.02;256.10;;;;;;;;;;4901726;29;20455;-89
2023/08/08 17:40:32;;;;;;;238.00;225.50;;;;;;;;;;4881889;29;20036;-91
2023/08/08 17:43:18;;;;;;;285.90;269.85;;;;;;;;;;4901897;29;20031;-95
2023/08/08 17:45:50;;;;;;;244.52;231.38;;;;;;;;;;4901874;29;20033;-94
2023/08/08 17:48:17;;;;;;;227.52;215.50;;;;;;;;;;4910717;29;20035;-95
2023/08/08 17:50:43;;;;;;;238.35;225.60;;;;;;;;;;4939641;29;20028;-91
2023/08/08 17:53:15;;;;;;;217.70;206.20;;;;;;;;;;4939580;29;20118;-92
2023/08/08 17:55:55;;;;;;;222.38;210.60;;;;;;;;;;4934806;29;20028;-94
2023/08/08 17:58:36;;;;;;;191.25;181.32;;;;;;;;;;4908183;29;20036;-90
2023/08/08 18:01:06;;;;;;;192.90;182.80;;;;;;;;;;4937775;29;20119;-93
2023/08/08 18:03:38;;;;;;;177.32;168.00;;;;;;;;;;4944096;29;20053;-95
2023/08/08 18:06:16;;;;;;;152.87;144.77;;;;;;;;;;4939871;29;20488;-94
2023/08/08 18:08:45;;;;;;;159.82;151.40;;;;;;;;;;4938942;29;20383;-93
2023/08/08 18:11:40;;;;;;;153.20;145.10;;;;;;;;;;4938930;29;20111;-93
2023/08/08 18:14:13;;;;;;;160.32;151.30;;;;;;;;;;4938971;29;20048;-92
2023/08/08 18:16:42;;;;;;;139.98;132.65;;;;;;;;;;4939233;29;20035;-94
2023/08/08 18:19:08;;;;;;;141.75;134.23;;;;;;;;;;4939281;29;20056;-92
2023/08/08 18:21:40;;;;;;;134.20;127.03;;;;;;;;;;4939117;29;20047;-91
2023/08/08 18:24:22;;;;;;;111.57;105.63;;;;;;;;;;4940475;29;20051;-95
2023/08/08 18:26:49;;;;;;;116.38;110.03;;;;;;;;;;4937969;29;20040;-95
2023/08/08 20:15:22;;;;;;;;;;;;;;;;;;;;;
